createdAt,value
2018-12-19T00:01:31.071Z,69.25
2018-12-19T00:04:02.176Z,68.75
2018-12-19T00:06:33.118Z,68.73
2018-12-19T00:09:03.365Z,69.38
2018-12-19T00:11:32.508Z,69.81
2018-12-19T00:14:01.579Z,70.02
2018-12-19T00:16:30.668Z,69.69
2018-12-19T00:19:00.149Z,69.00
2018-12-19T00:21:29.079Z,69.12
2018-12-19T00:23:58.917Z,70.16
2018-12-19T00:26:27.927Z,70.69
2018-12-19T00:28:58.768Z,70.10
2018-12-19T00:31:29.688Z,70.10
2018-12-19T00:34:00.667Z,70.70
2018-12-19T00:36:29.675Z,69.81
2018-12-19T00:38:58.701Z,70.61
2018-12-19T00:41:28.036Z,70.60
2018-12-19T00:43:56.950Z,69.65
2018-12-19T00:46:26.368Z,69.61
2018-12-19T00:48:55.315Z,67.82
2018-12-19T00:51:25.461Z,68.47
2018-12-19T00:53:54.613Z,70.51
2018-12-19T00:56:23.590Z,69.65
2018-12-19T00:58:52.574Z,69.98
2018-12-19T01:01:21.588Z,70.43
2018-12-19T01:03:50.512Z,69.23
2018-12-19T01:06:19.718Z,68.55
2018-12-19T01:08:48.826Z,70.07
2018-12-19T01:11:18.873Z,71.00
2018-12-19T01:13:47.804Z,72.30
2018-12-19T01:16:16.757Z,70.17
2018-12-19T01:18:45.684Z,69.51
2018-12-19T01:21:14.787Z,69.66
2018-12-19T01:23:43.800Z,69.06
2018-12-19T01:26:13.021Z,69.80
2018-12-19T01:28:42.013Z,69.39
2018-12-19T01:31:11.047Z,69.85
2018-12-19T01:33:40.012Z,68.70
2018-12-19T01:36:09.046Z,70.45
2018-12-19T01:38:37.982Z,69.87
2018-12-19T01:41:06.886Z,69.96
2018-12-19T01:43:35.887Z,69.99
2018-12-19T01:46:04.868Z,70.59
2018-12-19T01:48:33.809Z,71.91
2018-12-19T01:51:02.858Z,69.74
2018-12-19T01:53:31.833Z,68.96
2018-12-19T01:56:01.058Z,67.98
2018-12-19T01:58:30.146Z,67.29
2018-12-19T02:00:59.340Z,68.15
2018-12-19T02:03:28.234Z,68.62
2018-12-19T02:05:57.270Z,68.00
2018-12-19T02:08:26.183Z,69.85
2018-12-19T02:10:55.299Z,69.63
2018-12-19T02:13:24.203Z,69.42
2018-12-19T02:15:53.259Z,66.87
2018-12-19T02:18:22.213Z,68.13
2018-12-19T02:20:51.245Z,68.09
2018-12-19T02:23:20.302Z,73.80
2018-12-19T02:25:49.218Z,71.54
2018-12-19T02:28:18.228Z,70.32
2018-12-19T02:30:47.111Z,68.05
2018-12-19T02:33:16.315Z,68.22
2018-12-19T02:35:45.207Z,68.53
2018-12-19T02:38:14.193Z,73.64
2018-12-19T02:40:43.317Z,73.91
2018-12-19T02:43:12.285Z,78.21
2018-12-19T02:45:41.213Z,76.71
2018-12-19T02:48:10.708Z,73.85
2018-12-19T02:50:39.841Z,72.49
2018-12-19T02:53:08.870Z,75.65
2018-12-19T02:55:37.866Z,77.35
2018-12-19T02:58:06.927Z,79.39
2018-12-19T03:00:35.983Z,79.54
2018-12-19T03:03:05.073Z,79.40
2018-12-19T03:05:34.036Z,79.00
2018-12-19T03:08:03.183Z,76.72
2018-12-19T03:10:32.654Z,75.04
2018-12-19T03:13:01.664Z,78.08
2018-12-19T03:15:30.586Z,79.01
2018-12-19T03:17:59.596Z,80.14
2018-12-19T03:20:28.649Z,79.14
2018-12-19T03:22:57.599Z,78.50
2018-12-19T03:25:27.347Z,79.01
2018-12-19T03:27:56.421Z,76.82
2018-12-19T03:30:25.430Z,75.66
2018-12-19T03:32:54.537Z,76.90
2018-12-19T03:35:23.654Z,80.02
2018-12-19T03:37:52.574Z,76.37
2018-12-19T03:40:21.570Z,73.75
2018-12-19T03:42:50.676Z,73.72
2018-12-19T03:45:19.753Z,72.65
2018-12-19T03:47:48.753Z,73.04
2018-12-19T03:50:17.626Z,72.32
2018-12-19T03:52:46.555Z,73.97
2018-12-19T03:55:15.535Z,72.60
2018-12-19T03:57:44.867Z,72.13
2018-12-19T04:00:13.939Z,72.06
2018-12-19T04:02:45.327Z,71.98
2018-12-19T04:05:14.307Z,71.05
2018-12-19T04:07:43.378Z,71.38
2018-12-19T04:10:12.478Z,71.04
2018-12-19T04:12:41.409Z,72.58
2018-12-19T04:15:10.356Z,71.65
2018-12-19T04:17:39.322Z,71.92
2018-12-19T04:20:08.382Z,71.24
2018-12-19T04:22:39.246Z,69.94
2018-12-19T04:25:08.196Z,68.93
2018-12-19T04:27:37.176Z,69.29
2018-12-19T04:30:09.417Z,69.08
2018-12-19T04:32:38.506Z,68.45
2018-12-19T04:35:07.404Z,69.13
2018-12-19T04:37:36.314Z,69.39
2018-12-19T04:40:06.113Z,69.63
2018-12-19T04:42:35.277Z,69.54
2018-12-19T04:45:04.613Z,69.31
2018-12-19T04:47:33.610Z,69.06
2018-12-19T04:50:02.518Z,68.48
2018-12-19T04:52:31.507Z,67.79
2018-12-19T04:55:00.423Z,69.58
2018-12-19T04:57:29.394Z,70.12
2018-12-19T04:59:58.485Z,70.78
2018-12-19T05:02:27.549Z,70.19
2018-12-19T05:04:56.461Z,68.79
2018-12-19T05:07:26.270Z,69.50
2018-12-19T05:09:55.259Z,69.72
2018-12-19T05:12:24.150Z,67.68
2018-12-19T05:14:53.287Z,67.58
2018-12-19T05:17:22.155Z,67.23
2018-12-19T05:19:51.471Z,67.38
2018-12-19T05:22:20.428Z,66.92
2018-12-19T05:24:49.445Z,66.51
2018-12-19T05:27:18.394Z,66.26
2018-12-19T05:29:47.348Z,66.46
2018-12-19T05:32:16.324Z,65.86
2018-12-19T05:34:45.342Z,65.99
2018-12-19T05:37:15.293Z,65.32
2018-12-19T05:39:44.343Z,64.69
2018-12-19T05:42:13.297Z,64.94
2018-12-19T05:44:42.297Z,65.04
2018-12-19T05:47:11.706Z,65.93
2018-12-19T05:49:41.010Z,65.99
2018-12-19T05:52:09.983Z,66.16
2018-12-19T05:54:38.883Z,65.46
2018-12-19T05:57:07.815Z,65.43
2018-12-19T05:59:36.863Z,65.69
2018-12-19T06:02:05.873Z,64.74
2018-12-19T06:04:36.795Z,64.88
2018-12-19T06:07:05.739Z,65.40
2018-12-19T06:09:34.666Z,65.90
2018-12-19T06:12:03.653Z,66.54
2018-12-19T06:14:32.576Z,67.53
2018-12-19T06:17:01.671Z,69.74
2018-12-19T06:19:30.663Z,68.53
2018-12-19T06:21:59.632Z,67.23
2018-12-19T06:24:28.721Z,67.01
2018-12-19T06:26:57.562Z,66.25
2018-12-19T06:29:26.583Z,65.81
2018-12-19T06:31:56.198Z,66.39
2018-12-19T06:34:25.106Z,66.07
2018-12-19T06:36:54.094Z,67.57
2018-12-19T06:39:23.105Z,68.62
2018-12-19T06:41:52.161Z,68.69
2018-12-19T06:44:21.123Z,68.19
2018-12-19T06:46:50.062Z,68.41
2018-12-19T06:49:18.954Z,67.55
2018-12-19T06:51:47.996Z,67.81
2018-12-19T06:54:17.280Z,66.85
2018-12-19T06:56:46.238Z,65.42
2018-12-19T06:59:15.253Z,68.27
2018-12-19T07:01:44.150Z,68.02
2018-12-19T07:04:13.837Z,68.22
2018-12-19T07:06:42.720Z,67.36
2018-12-19T07:09:11.923Z,67.92
2018-12-19T07:11:40.793Z,66.15
2018-12-19T07:14:09.721Z,66.14
2018-12-19T07:16:43.381Z,66.92
2018-12-19T07:19:09.502Z,66.55
2018-12-19T07:21:38.458Z,66.66
2018-12-19T07:24:07.695Z,65.87
2018-12-19T07:26:36.663Z,65.54
2018-12-19T07:29:05.703Z,66.08
2018-12-19T07:31:34.591Z,67.02
2018-12-19T07:34:03.666Z,66.79
2018-12-19T07:36:32.538Z,66.38
2018-12-19T07:39:01.517Z,65.22
2018-12-19T07:41:31.882Z,64.81
2018-12-19T07:44:00.917Z,65.69
2018-12-19T07:46:29.923Z,66.09
2018-12-19T07:48:58.943Z,64.87
2018-12-19T07:51:27.849Z,64.86
2018-12-19T07:53:56.744Z,65.64
2018-12-19T07:56:25.771Z,65.12
2018-12-19T07:58:54.691Z,65.30
2018-12-19T08:01:23.668Z,65.48
2018-12-19T08:03:52.610Z,65.55
2018-12-19T08:06:21.559Z,64.76
2018-12-19T08:08:50.482Z,64.03
2018-12-19T08:11:19.385Z,63.43
2018-12-19T08:13:48.324Z,62.38
2018-12-19T08:16:17.271Z,62.78
2018-12-19T08:18:46.576Z,62.54
2018-12-19T08:21:15.672Z,62.83
2018-12-19T08:23:44.595Z,64.05
2018-12-19T08:26:13.542Z,63.75
2018-12-19T08:28:42.823Z,64.95
2018-12-19T08:31:11.865Z,62.38
2018-12-19T08:33:40.850Z,61.13
2018-12-19T08:36:09.754Z,60.18
2018-12-19T08:38:38.730Z,61.11
2018-12-19T08:41:07.674Z,61.06
2018-12-19T08:43:36.587Z,60.84
2018-12-19T08:46:05.481Z,61.97
2018-12-19T08:48:34.421Z,59.16
2018-12-19T08:51:03.507Z,60.33
2018-12-19T08:53:32.614Z,59.54
2018-12-19T08:56:01.669Z,59.16
2018-12-19T08:58:30.722Z,59.31
2018-12-19T09:00:59.618Z,59.05
2018-12-19T09:03:28.557Z,59.56
2018-12-19T09:05:57.433Z,59.59
2018-12-19T09:08:26.421Z,58.38
2018-12-19T09:10:55.348Z,58.70
2018-12-19T09:13:24.243Z,57.97
2018-12-19T09:15:53.162Z,57.20
2018-12-19T09:18:22.187Z,58.94
2018-12-19T09:20:51.239Z,61.71
2018-12-19T09:23:20.156Z,62.70
2018-12-19T09:25:49.235Z,63.79
2018-12-19T09:28:18.176Z,65.22
2018-12-19T09:30:47.235Z,66.45
2018-12-19T09:33:16.099Z,66.50
2018-12-19T09:35:45.889Z,71.38
2018-12-19T09:38:14.962Z,73.54
2018-12-19T09:40:43.890Z,74.75
2018-12-19T09:43:12.841Z,75.03
2018-12-19T09:45:41.811Z,74.32
2018-12-19T09:48:10.844Z,71.50
2018-12-19T09:50:39.850Z,70.33
2018-12-19T09:53:08.839Z,70.95
2018-12-19T09:55:37.798Z,69.16
2018-12-19T09:58:06.779Z,70.07
2018-12-19T10:00:35.708Z,72.37
2018-12-19T10:03:04.617Z,72.49
2018-12-19T10:05:33.602Z,72.29
2018-12-19T10:08:02.558Z,71.33
2018-12-19T10:10:31.593Z,69.02
2018-12-19T10:13:00.515Z,72.25
2018-12-19T10:15:29.470Z,74.21
2018-12-19T10:17:58.515Z,73.25
2018-12-19T10:20:27.494Z,74.14
2018-12-19T10:22:56.435Z,72.92
2018-12-19T10:25:25.381Z,73.48
2018-12-19T10:27:54.382Z,74.69
2018-12-19T10:30:23.404Z,74.88
2018-12-19T10:32:55.660Z,74.72
2018-12-19T10:35:25.614Z,74.30
2018-12-19T10:37:54.709Z,71.59
2018-12-19T10:40:23.646Z,71.76
2018-12-19T10:42:52.680Z,71.47
2018-12-19T10:45:21.534Z,70.02
2018-12-19T10:47:50.418Z,69.52
2018-12-19T10:50:19.359Z,69.23
2018-12-19T10:52:49.322Z,71.57
2018-12-19T10:55:18.297Z,71.37
2018-12-19T10:57:47.218Z,68.79
2018-12-19T11:00:21.698Z,69.36
2018-12-19T11:02:50.574Z,71.68
2018-12-19T11:05:19.561Z,72.77
2018-12-19T11:07:48.447Z,71.75
2018-12-19T11:10:17.673Z,71.37
2018-12-19T11:12:46.610Z,69.23
2018-12-19T11:15:15.740Z,69.55
2018-12-19T11:17:44.650Z,71.33
2018-12-19T11:20:13.919Z,71.25
2018-12-19T11:22:42.882Z,71.28
2018-12-19T11:25:11.867Z,70.14
2018-12-19T11:27:40.781Z,72.35
2018-12-19T11:30:10.173Z,71.16
2018-12-19T11:32:39.122Z,70.99
2018-12-19T11:35:08.246Z,70.38
2018-12-19T11:37:37.234Z,71.36
2018-12-19T11:40:11.921Z,72.11
2018-12-19T11:42:40.859Z,70.20
2018-12-19T11:50:19.854Z,71.20
2018-12-19T11:52:48.714Z,72.06
2018-12-19T11:55:17.638Z,73.39
2018-12-19T11:57:49.907Z,73.26
2018-12-19T12:00:22.579Z,72.68
2018-12-19T12:08:04.410Z,71.73
2018-12-19T12:10:33.349Z,71.56
2018-12-19T12:18:11.921Z,68.16
2018-12-19T12:20:40.895Z,66.48
2018-12-19T12:23:09.778Z,64.72
2018-12-19T12:25:38.911Z,65.78
2018-12-19T12:28:07.806Z,64.73
2018-12-19T12:33:12.291Z,67.15
2018-12-19T12:35:41.646Z,69.12
2018-12-19T12:38:10.508Z,69.80
2018-12-19T12:40:39.543Z,70.47
2018-12-19T12:43:08.443Z,70.81
2018-12-19T12:45:37.374Z,72.47
2018-12-19T12:48:06.390Z,73.07
2018-12-19T12:50:35.274Z,73.84
2018-12-19T12:53:04.414Z,75.10
2018-12-19T12:55:33.366Z,73.87
2018-12-19T12:58:02.283Z,75.71
2018-12-19T13:00:31.227Z,76.46
2018-12-19T13:03:00.204Z,77.26
2018-12-19T13:05:29.109Z,77.27
2018-12-19T13:07:58.103Z,77.49
2018-12-19T13:10:27.070Z,77.48
2018-12-19T13:12:55.962Z,76.77
2018-12-19T13:15:30.233Z,75.67
2018-12-19T13:17:59.179Z,72.62
2018-12-19T13:20:28.081Z,74.31
2018-12-19T13:22:57.019Z,73.49
2018-12-19T13:25:25.954Z,73.18
2018-12-19T13:27:54.962Z,71.18
2018-12-19T13:30:23.906Z,70.72
2018-12-19T13:32:52.936Z,71.29
2018-12-19T13:35:22.015Z,71.62
2018-12-19T13:37:50.911Z,71.37
2018-12-19T13:40:19.811Z,72.10
2018-12-19T13:42:48.863Z,71.58
2018-12-19T13:45:17.741Z,71.91
2018-12-19T13:47:46.785Z,71.86
2018-12-19T13:50:15.682Z,72.16
2018-12-19T13:52:44.632Z,71.84
2018-12-19T13:55:13.794Z,71.43
2018-12-19T13:57:42.710Z,72.86
2018-12-19T14:00:12.192Z,74.02
2018-12-19T14:02:42.250Z,73.39
2018-12-19T14:05:11.117Z,72.64
2018-12-19T14:07:40.052Z,73.73
2018-12-19T14:10:09.210Z,73.99
2018-12-19T14:12:38.215Z,74.54
2018-12-19T14:15:08.072Z,73.14
2018-12-19T14:17:37.125Z,73.08
2018-12-19T14:20:08.093Z,73.07
2018-12-19T14:22:37.143Z,70.65
2018-12-19T14:25:06.240Z,70.68
2018-12-19T14:27:35.126Z,70.46
2018-12-19T14:30:04.672Z,71.80
2018-12-19T14:32:33.583Z,73.20
2018-12-19T14:35:02.846Z,72.18
2018-12-19T14:37:31.853Z,72.35
2018-12-19T14:40:00.809Z,72.28
2018-12-19T14:42:29.757Z,72.09
2018-12-19T14:44:59.138Z,72.54
2018-12-19T14:47:29.122Z,72.54
2018-12-19T14:49:58.167Z,73.06
2018-12-19T14:52:27.196Z,73.38
2018-12-19T14:54:56.146Z,71.58
2018-12-19T14:57:25.093Z,71.33
2018-12-19T14:59:54.027Z,71.64
2018-12-19T15:02:22.927Z,72.19
2018-12-19T15:04:51.944Z,72.11
2018-12-19T15:07:21.018Z,73.44
2018-12-19T15:09:50.788Z,72.60
2018-12-19T15:12:25.719Z,73.92
2018-12-19T15:14:51.768Z,75.66
2018-12-19T15:17:20.650Z,73.41
2018-12-19T15:19:49.572Z,74.14
2018-12-19T15:22:18.601Z,74.48
2018-12-19T15:24:47.578Z,76.11
2018-12-19T15:27:16.621Z,77.32
2018-12-19T15:29:45.539Z,78.55
2018-12-19T15:32:14.630Z,79.71
2018-12-19T15:34:43.662Z,79.52
2018-12-19T15:37:12.639Z,80.40
2018-12-19T15:39:41.662Z,80.02
2018-12-19T15:42:10.553Z,80.08
2018-12-19T15:44:39.658Z,78.98
2018-12-19T15:47:08.542Z,79.44
2018-12-19T15:49:37.470Z,81.40
2018-12-19T15:52:07.414Z,81.96
2018-12-19T15:54:36.374Z,81.70
2018-12-19T15:57:05.371Z,82.47
2018-12-19T15:59:34.381Z,83.73
2018-12-19T16:02:03.417Z,84.03
2018-12-19T16:04:33.148Z,83.77
2018-12-19T16:07:02.098Z,83.94
2018-12-19T16:09:31.045Z,84.49
2018-12-19T16:12:00.089Z,83.38
2018-12-19T16:14:29.058Z,84.43
2018-12-19T16:16:58.020Z,84.90
2018-12-19T16:19:26.910Z,85.98
2018-12-19T16:21:55.887Z,85.87
2018-12-19T16:24:24.882Z,85.52
2018-12-19T16:26:53.912Z,85.27
2018-12-19T16:29:22.850Z,85.00
2018-12-19T16:31:52.335Z,84.94
2018-12-19T16:34:21.454Z,84.60
2018-12-19T16:36:50.471Z,83.64
2018-12-19T16:39:19.371Z,84.20
2018-12-19T16:41:48.342Z,84.04
2018-12-19T16:44:17.267Z,83.85
2018-12-19T16:46:46.274Z,83.18
2018-12-19T16:49:15.194Z,82.92
2018-12-19T16:51:44.263Z,82.53
2018-12-19T16:54:13.150Z,81.61
2018-12-19T16:56:42.142Z,80.92
2018-12-19T16:59:11.214Z,81.94
2018-12-19T17:01:40.296Z,82.09
2018-12-19T17:04:09.281Z,80.97
2018-12-19T17:06:38.163Z,81.34
2018-12-19T17:09:08.131Z,79.62
2018-12-19T17:11:37.136Z,79.54
2018-12-19T17:14:06.222Z,77.71
2018-12-19T17:16:35.110Z,78.94
2018-12-19T17:19:04.351Z,78.05
2018-12-19T17:21:33.398Z,78.06
2018-12-19T17:24:02.257Z,77.79
2018-12-19T17:26:31.249Z,77.84
2018-12-19T17:29:00.156Z,78.35
2018-12-19T17:31:29.086Z,79.61
2018-12-19T17:33:58.742Z,79.48
2018-12-19T17:36:27.772Z,79.93
2018-12-19T17:38:56.794Z,79.49
2018-12-19T17:41:25.966Z,79.99
2018-12-19T17:43:54.849Z,79.97
2018-12-19T17:46:23.809Z,80.09
2018-12-19T17:48:52.759Z,79.61
2018-12-19T17:51:21.639Z,79.14
2018-12-19T17:53:50.582Z,79.87
2018-12-19T17:56:19.499Z,80.76
2018-12-19T17:58:48.417Z,80.84
2018-12-19T18:01:17.580Z,80.32
2018-12-19T18:03:46.537Z,80.94
2018-12-19T18:06:15.507Z,82.35
2018-12-19T18:08:45.295Z,82.98
2018-12-19T18:11:14.241Z,83.63
2018-12-19T18:13:43.538Z,83.05
2018-12-19T18:16:12.534Z,82.17
2018-12-19T18:18:41.455Z,81.98
2018-12-19T18:21:10.449Z,82.16
2018-12-19T18:23:39.332Z,81.98
2018-12-19T18:26:08.642Z,82.92
2018-12-19T18:28:37.608Z,83.32
2018-12-19T18:31:06.662Z,82.99
2018-12-19T18:33:35.614Z,82.93
2018-12-19T18:36:04.635Z,83.62
2018-12-19T18:38:33.599Z,83.94
2018-12-19T18:41:02.613Z,84.59
2018-12-19T18:43:31.520Z,83.87
2018-12-19T18:46:00.476Z,83.96
2018-12-19T18:48:29.430Z,84.32
2018-12-19T18:50:58.353Z,84.64
2018-12-19T18:53:27.401Z,84.54
2018-12-19T18:55:56.391Z,84.86
2018-12-19T18:58:25.377Z,84.89
2018-12-19T19:00:54.566Z,85.07
2018-12-19T19:03:23.694Z,84.95
2018-12-19T19:05:52.912Z,85.72
2018-12-19T19:08:21.994Z,85.54
2018-12-19T19:10:51.011Z,85.23
2018-12-19T19:13:19.974Z,85.17
2018-12-19T19:15:49.039Z,85.07
2018-12-19T19:18:17.942Z,83.77
2018-12-19T19:20:46.906Z,82.71
2018-12-19T19:23:16.411Z,82.65
2018-12-19T19:25:45.430Z,83.30
2018-12-19T19:28:14.426Z,85.15
2018-12-19T19:30:43.355Z,86.24
2018-12-19T19:33:12.406Z,87.34
2018-12-19T19:35:41.306Z,87.74
2018-12-19T19:38:10.346Z,87.35
2018-12-19T19:40:39.319Z,87.24
2018-12-19T19:43:08.578Z,87.11
2018-12-19T19:45:37.589Z,86.39
2018-12-19T19:48:06.570Z,86.53
2018-12-19T19:50:35.631Z,86.58
2018-12-19T19:53:04.790Z,86.45
2018-12-19T19:55:33.818Z,86.92
2018-12-19T19:58:02.890Z,87.10
2018-12-19T20:00:33.061Z,86.64
2018-12-19T20:03:02.569Z,86.30
2018-12-19T20:05:31.572Z,86.82
2018-12-19T20:08:01.695Z,86.85
2018-12-19T20:10:30.587Z,86.01
2018-12-19T20:12:59.542Z,85.97
2018-12-19T20:15:28.472Z,86.34
2018-12-19T20:17:57.569Z,85.73
2018-12-19T20:20:26.497Z,86.28
2018-12-19T20:22:55.443Z,85.41
2018-12-19T20:25:24.518Z,85.72
2018-12-19T20:27:53.468Z,86.24
2018-12-19T20:30:22.692Z,86.31
2018-12-19T20:32:51.632Z,86.42
2018-12-19T20:35:20.691Z,87.26
2018-12-19T20:37:50.331Z,87.75
2018-12-19T20:40:19.448Z,87.96
2018-12-19T20:42:48.471Z,87.32
2018-12-19T20:45:17.560Z,87.04
2018-12-19T20:47:46.569Z,86.27
2018-12-19T20:50:15.507Z,87.16
2018-12-19T20:52:45.165Z,87.34
2018-12-19T20:55:14.814Z,87.67
2018-12-19T20:57:43.760Z,88.09
2018-12-19T21:00:12.887Z,88.08
2018-12-19T21:02:42.023Z,88.50
2018-12-19T21:05:11.043Z,87.71
2018-12-19T21:07:40.281Z,88.38
2018-12-19T21:10:09.713Z,88.87
2018-12-19T21:12:40.450Z,88.72
2018-12-19T21:15:09.579Z,88.41
2018-12-19T21:17:43.854Z,88.64
2018-12-19T21:20:12.967Z,89.46
2018-12-19T21:22:41.942Z,89.38
2018-12-19T21:25:10.981Z,89.52
2018-12-19T21:27:40.015Z,89.17
2018-12-19T21:30:10.171Z,89.33
2018-12-19T21:32:39.101Z,88.89
2018-12-19T21:35:09.321Z,88.81
2018-12-19T21:37:38.469Z,88.86
2018-12-19T21:40:07.835Z,89.47
2018-12-19T21:42:36.914Z,89.23
2018-12-19T21:45:06.122Z,88.69
2018-12-19T21:47:35.139Z,88.06
2018-12-19T21:50:04.543Z,87.66
2018-12-19T21:52:33.979Z,88.00
2018-12-19T21:55:03.032Z,87.64
2018-12-19T21:57:32.124Z,87.66
2018-12-19T22:00:01.217Z,88.07
2018-12-19T22:02:31.246Z,88.72
2018-12-19T22:05:00.223Z,88.78
2018-12-19T22:07:29.268Z,89.19
2018-12-19T22:09:58.205Z,88.39
2018-12-19T22:12:27.184Z,86.96
2018-12-19T22:14:56.152Z,86.86
2018-12-19T22:18:31.418Z,85.84
2018-12-19T22:21:00.601Z,86.26
2018-12-19T22:23:29.578Z,86.32
2018-12-19T22:25:58.535Z,87.45
2018-12-19T22:28:27.547Z,87.84
2018-12-19T22:30:56.548Z,88.44
2018-12-19T22:33:25.475Z,87.87
2018-12-19T22:35:54.535Z,86.51
2018-12-19T22:38:23.649Z,85.87
2018-12-19T22:40:52.719Z,86.27
2018-12-19T22:43:21.669Z,86.73
2018-12-19T22:45:51.171Z,87.42
2018-12-19T22:48:20.214Z,88.59
2018-12-19T22:50:49.881Z,89.21
2018-12-19T22:53:19.069Z,89.11
2018-12-19T22:55:55.050Z,89.13
2018-12-19T22:58:24.299Z,87.41
2018-12-19T23:00:58.863Z,87.19
2018-12-19T23:03:35.448Z,86.98
2018-12-19T23:06:05.810Z,86.39
2018-12-19T23:08:34.968Z,86.98
2018-12-19T23:14:01.470Z,88.00
2018-12-19T23:16:36.288Z,87.87
2018-12-19T23:19:11.050Z,88.29
2018-12-19T23:21:45.715Z,88.35
2018-12-19T23:24:21.417Z,88.21
2018-12-19T23:26:52.436Z,88.68
2018-12-19T23:29:22.532Z,88.09
2018-12-19T23:31:51.805Z,88.12
2018-12-19T23:34:20.865Z,87.99
2018-12-19T23:36:49.868Z,86.95
2018-12-19T23:39:19.460Z,87.38
2018-12-19T23:41:48.466Z,86.32
2018-12-19T23:44:22.649Z,86.98
2018-12-19T23:46:52.269Z,87.43
2018-12-19T23:49:21.294Z,87.20
2018-12-19T23:51:50.969Z,87.01
2018-12-19T23:54:20.665Z,86.95
2018-12-19T23:56:49.663Z,86.69
2018-12-19T23:59:18.954Z,86.33
